Time;durP1;ratioP1;P1;durP2;ratioP2;P2;SDS_P1;SDS_P2;PMS_P1;PMS_P2;Temp;Humidity;BMP_temperature;BMP_pressure;BME280_temperature;BME280_humidity;BME280_pressure;Samples;Min_cycle;Max_cycle;Signal;HPM_P1;HPM_P2
2021/04/23 00:01:16;;;;;;;5.57;3.08;;;;;;;13.68;61.71;97560.84;4940986;28;20413;-84
2021/04/23 00:03:49;;;;;;;4.55;3.00;;;;;;;13.61;61.81;97555.06;4940888;28;20126;-84
2021/04/23 00:06:19;;;;;;;;;;;;;;;13.68;62.07;97568.94;4949997;28;20029;-84
2021/04/23 00:08:49;;;;;;;7.00;3.13;;;;;;;13.69;61.77;97563.41;4959071;28;20300;-81
2021/04/23 00:11:15;;;;;;;5.13;3.50;;;;;;;13.60;63.08;97549.84;4940370;28;20390;-82
2021/04/23 00:13:42;;;;;;;4.40;2.92;;;;;;;13.64;61.54;97557.53;4941086;28;20133;-83
2021/04/23 00:16:08;;;;;;;5.18;3.30;;;;;;;13.71;61.33;97564.19;4940730;28;20038;-82
2021/04/23 00:18:34;;;;;;;6.60;3.47;;;;;;;13.71;60.65;97553.44;4940428;28;20178;-84
2021/04/23 00:21:00;;;;;;;6.18;3.10;;;;;;;13.65;61.17;97550.34;4941094;28;20105;-83
2021/04/23 00:23:28;;;;;;;3.88;2.65;;;;;;;13.71;60.57;97557.94;4938470;28;20031;-83
2021/04/23 00:25:53;;;;;;;6.20;2.80;;;;;;;13.72;61.15;97549.75;4941517;28;20030;-82
2021/04/23 00:28:19;;;;;;;3.97;2.70;;;;;;;13.73;60.85;97548.78;4951178;28;20029;-84
2021/04/23 00:30:48;;;;;;;4.75;2.80;;;;;;;13.75;61.61;97537.94;4937958;28;20134;-82
2021/04/23 00:33:15;;;;;;;4.60;3.00;;;;;;;13.75;61.94;97554.06;4940859;28;20046;-83
2021/04/23 00:35:44;;;;;;;6.22;3.03;;;;;;;13.73;61.70;97558.69;4941449;28;20493;-84
2021/04/23 00:38:24;;;;;;;4.22;2.95;;;;;;;13.75;60.73;97551.38;4940343;28;20061;-84
2021/04/23 00:41:12;;;;;;;3.58;2.88;;;;;;;13.75;61.92;97551.38;4952892;28;20117;-83
2021/04/23 00:43:42;;;;;;;5.18;3.22;;;;;;;13.69;62.63;97543.78;4956234;28;20089;-82
2021/04/23 00:46:08;;;;;;;5.88;3.30;;;;;;;13.75;63.63;97559.44;4939976;28;20038;-85
2021/04/23 00:48:37;;;;;;;7.07;3.15;;;;;;;13.76;63.41;97553.06;4943880;28;20462;-84
2021/04/23 00:51:09;;;;;;;3.60;2.85;;;;;;;13.69;63.17;97541.09;4950163;28;20041;-83
2021/04/23 00:53:37;;;;;;;;;;;;;;;13.74;62.31;97555.88;4942977;29;20027;-83
2021/04/23 00:56:08;;;;;;;5.15;3.55;;;;;;;13.65;63.12;97558.41;4951791;28;20408;-84
2021/04/23 00:58:35;;;;;;;6.20;3.58;;;;;;;13.64;64.43;97556.66;4949731;28;20026;-82
2021/04/23 01:01:15;;;;;;;6.53;3.97;;;;;;;13.69;63.85;97559.91;4948559;28;20030;-83
2021/04/23 01:03:40;;;;;;;5.38;3.78;;;;;;;13.69;64.30;97551.84;4957612;28;20043;-84
2021/04/23 01:06:13;;;;;;;5.00;3.78;;;;;;;13.70;63.18;97550.84;4945754;28;20123;-83
2021/04/23 01:08:38;;;;;;;5.78;3.55;;;;;;;13.66;64.30;97552.06;4942207;28;20033;-83
2021/04/23 01:11:04;;;;;;;6.55;3.53;;;;;;;13.65;63.21;97553.88;4959963;28;20034;-83
2021/04/23 01:13:31;;;;;;;4.95;3.20;;;;;;;13.66;63.40;97555.56;4932163;28;20114;-84
2021/04/23 01:16:19;;;;;;;6.95;3.17;;;;;;;13.66;64.66;97560.13;4929254;29;20498;-84
2021/04/23 01:18:46;;;;;;;4.30;3.00;;;;;;;13.56;65.35;97551.88;4946973;28;20453;-84
2021/04/23 01:21:17;;;;;;;4.80;3.05;;;;;;;13.45;65.93;97554.47;4946491;28;20045;-83
2021/04/23 01:23:44;;;;;;;5.90;3.15;;;;;;;13.40;68.05;97553.97;4947352;28;20038;-83
2021/04/23 01:26:12;;;;;;;7.15;3.55;;;;;;;13.40;67.47;97549.47;4954134;28;20034;-83
2021/04/23 01:28:38;;;;;;;6.22;3.50;;;;;;;13.44;68.30;97553.63;4929268;29;20050;-84
2021/04/23 01:31:07;;;;;;;4.97;3.20;;;;;;;13.39;67.52;97549.56;4947945;28;20502;-83
2021/04/23 01:33:36;;;;;;;6.78;3.60;;;;;;;13.36;66.84;97556.03;4956271;28;20026;-84
2021/04/23 01:36:06;;;;;;;9.05;3.10;;;;;;;13.33;67.50;97545.50;4968493;28;20026;-83
2021/04/23 01:38:32;;;;;;;8.43;3.40;;;;;;;13.41;69.07;97561.06;4968946;28;20038;-84
2021/04/23 01:40:58;;;;;;;7.72;3.80;;;;;;;13.23;69.46;97547.13;4956660;28;20034;-84
2021/04/23 01:43:24;;;;;;;4.93;3.90;;;;;;;13.25;70.23;97560.47;4926392;28;20074;-83
2021/04/23 01:45:49;;;;;;;9.13;3.92;;;;;;;13.25;70.08;97545.22;4932190;29;20038;-84
2021/04/23 01:48:16;;;;;;;8.73;3.30;;;;;;;13.39;70.70;97563.84;4929780;29;20055;-84
2021/04/23 01:50:43;;;;;;;8.43;3.97;;;;;;;13.40;70.86;97573.63;4936523;29;20059;-84
2021/04/23 01:53:09;;;;;;;9.75;4.15;;;;;;;13.49;67.18;97572.09;4938993;29;20019;-83
2021/04/23 01:55:35;;;;;;;10.88;3.67;;;;;;;13.49;68.91;97575.66;4931155;29;20031;-84
2021/04/23 01:58:01;;;;;;;10.27;3.42;;;;;;;13.39;68.98;97569.22;4935925;29;20491;-84
2021/04/23 02:00:31;;;;;;;7.15;4.25;;;;;;;13.43;69.44;97586.84;4940128;28;20038;-84
2021/04/23 02:03:00;;;;;;;4.95;3.78;;;;;;;13.39;69.92;97582.66;4948332;29;20037;-83
2021/04/23 02:05:26;;;;;;;5.68;4.20;;;;;;;13.26;70.37;97573.75;4943253;28;20638;-83
2021/04/23 02:07:52;;;;;;;6.85;4.53;;;;;;;13.28;70.78;97566.47;4931301;28;20114;-84
2021/04/23 02:10:21;;;;;;;8.35;4.10;;;;;;;13.29;71.27;97575.41;4934344;29;20039;-83
2021/04/23 02:12:47;;;;;;;8.27;3.72;;;;;;;13.22;71.18;97582.16;4936935;29;20038;-83
2021/04/23 02:15:15;;;;;;;6.28;3.95;;;;;;;13.18;71.16;97576.16;4933343;29;20617;-84
2021/04/23 02:17:41;;;;;;;6.13;4.07;;;;;;;13.12;71.37;97573.03;4928883;29;20031;-83
2021/04/23 02:20:12;;;;;;;4.53;3.70;;;;;;;13.11;70.65;97576.69;4926976;28;20038;-83
2021/04/23 02:22:37;;;;;;;7.40;4.50;;;;;;;13.02;73.78;97570.13;4950139;29;20101;-84
2021/04/23 02:25:05;;;;;;;10.02;4.40;;;;;;;13.11;74.34;97593.66;4937622;29;20051;-84
2021/04/23 02:27:30;;;;;;;7.63;4.00;;;;;;;13.09;71.84;97578.63;4945438;29;20503;-83
2021/04/23 02:29:56;;;;;;;7.95;4.18;;;;;;;13.07;70.94;97580.56;4930393;28;20028;-83
2021/04/23 02:32:22;;;;;;;8.35;4.70;;;;;;;13.11;69.47;97590.97;4934809;29;20031;-83
2021/04/23 02:34:48;;;;;;;10.88;4.22;;;;;;;13.22;69.49;97587.53;4939551;29;20034;-83
2021/04/23 02:37:14;;;;;;;10.45;4.05;;;;;;;13.28;69.38;97592.47;4939912;28;20406;-83
2021/04/23 02:39:40;;;;;;;7.43;4.40;;;;;;;13.25;69.10;97582.81;4931798;29;20055;-84
2021/04/23 02:42:06;;;;;;;7.43;3.78;;;;;;;13.31;69.57;97587.75;4937877;29;20062;-83
2021/04/23 02:44:32;;;;;;;6.97;4.78;;;;;;;13.39;69.57;97590.72;4955190;29;20042;-84
2021/04/23 02:46:57;;;;;;;7.53;4.88;;;;;;;13.43;69.39;97589.53;4952493;28;20491;-83
2021/04/23 02:49:23;;;;;;;8.27;5.07;;;;;;;13.40;69.88;97581.69;4945884;29;20505;-83
2021/04/23 02:51:49;;;;;;;12.45;7.90;;;;;;;13.39;71.29;97582.66;4939087;29;20078;-83
2021/04/23 02:54:16;;;;;;;5.00;3.90;;;;;;;13.50;70.01;97590.78;4925170;29;20388;-83
2021/04/23 02:56:42;;;;;;;62.40;40.85;;;;;;;13.44;71.17;97575.13;4954038;28;20742;-83
2021/04/23 02:59:08;;;;;;;5.72;4.10;;;;;;;13.48;71.13;97598.13;4941629;28;20035;-83
2021/04/23 03:01:47;;;;;;;5.35;3.90;;;;;;;13.48;71.69;97586.50;4934119;28;20037;-84
2021/04/23 03:04:12;;;;;;;5.80;3.50;;;;;;;13.43;72.13;97588.69;4927591;29;20070;-83
2021/04/23 03:06:38;;;;;;;4.20;3.60;;;;;;;13.35;75.26;97613.41;4948399;28;20069;-84
2021/04/23 03:09:06;;;;;;;4.13;3.30;;;;;;;13.22;74.83;97609.03;4941498;28;20027;-83
2021/04/23 03:11:32;;;;;;;5.10;3.30;;;;;;;13.17;74.17;97606.66;4941816;28;20189;-84
2021/04/23 03:13:59;;;;;;;4.95;3.17;;;;;;;13.17;76.02;97619.22;4957463;28;20027;-83
2021/04/23 03:16:25;;;;;;;8.45;3.20;;;;;;;13.16;75.69;97618.41;4933703;29;20490;-84
2021/04/23 03:18:51;;;;;;;3.67;3.00;;;;;;;12.99;76.28;97597.19;4957557;28;20042;-83
2021/04/23 03:21:18;;;;;;;4.70;3.67;;;;;;;12.92;77.82;97604.00;4941627;28;20035;-83
2021/04/23 03:23:45;;;;;;;5.57;3.20;;;;;;;13.07;77.70;97632.44;4947000;28;20414;-83
2021/04/23 03:26:12;;;;;;;4.82;2.90;;;;;;;13.00;75.93;97631.16;4936084;28;20041;-83
2021/04/23 03:28:38;;;;;;;4.88;3.13;;;;;;;13.00;75.20;97631.16;4948325;29;20027;-83
2021/04/23 03:31:05;;;;;;;7.55;3.92;;;;;;;13.03;75.16;97625.56;4929294;28;20106;-84
2021/04/23 03:33:31;;;;;;;9.20;3.88;;;;;;;13.02;74.83;97626.50;4930653;28;20031;-83
2021/04/23 03:35:59;;;;;;;5.80;3.35;;;;;;;13.06;74.87;97630.72;4941249;28;20513;-83
2021/04/23 03:38:29;;;;;;;12.13;3.92;;;;;;;13.10;73.61;97642.13;4938472;28;20093;-82
2021/04/23 03:40:56;;;;;;;5.07;3.65;;;;;;;13.14;74.97;97643.63;4956987;28;20505;-82
2021/04/23 03:43:22;;;;;;;3.08;2.72;;;;;;;13.11;73.39;97643.84;4941190;28;20480;-83
2021/04/23 03:45:52;;;;;;;4.22;3.00;;;;;;;13.00;75.12;97649.94;4941039;28;20031;-84
2021/04/23 03:48:18;;;;;;;3.78;2.78;;;;;;;12.97;74.85;97634.03;4940237;28;20039;-84
2021/04/23 03:50:45;;;;;;;2.67;2.08;;;;;;;13.07;72.08;97653.94;4940750;28;20034;-82
2021/04/23 03:53:12;;;;;;;7.50;3.58;;;;;;;12.99;73.12;97640.16;4940345;28;20102;-82
2021/04/23 03:55:41;;;;;;;3.08;2.25;;;;;;;13.09;74.61;97657.38;4940832;28;20517;-85
2021/04/23 03:58:07;;;;;;;3.50;2.45;;;;;;;13.14;73.67;97660.59;4940621;28;20118;-83
2021/04/23 04:00:36;;;;;;;4.88;2.20;;;;;;;13.16;72.69;97656.00;4946975;29;20061;-84
2021/04/23 04:03:02;;;;;;;2.53;2.00;;;;;;;13.12;72.64;97659.00;4976503;28;20557;-84
2021/04/23 04:05:28;;;;;;;3.75;2.40;;;;;;;13.06;73.75;97660.25;4949827;28;20101;-84
2021/04/23 04:07:53;;;;;;;2.15;1.70;;;;;;;13.14;71.27;97670.47;4954615;28;20027;-84
2021/04/23 04:10:19;;;;;;;3.08;2.03;;;;;;;13.07;72.78;97667.34;4940478;28;20050;-84
2021/04/23 04:12:46;;;;;;;2.10;1.80;;;;;;;13.13;70.83;97682.22;4949211;28;20052;-83
2021/04/23 04:15:12;;;;;;;13.60;7.47;;;;;;;13.01;72.74;97675.84;4958170;28;20529;-83
2021/04/23 04:17:38;;;;;;;3.70;3.10;;;;;;;13.00;73.16;97674.97;4951170;28;20026;-81
2021/04/23 04:20:06;;;;;;;2.75;2.35;;;;;;;13.00;71.82;97696.47;4955112;28;20399;-83
2021/04/23 04:22:32;;;;;;;3.40;2.72;;;;;;;13.02;73.42;97693.66;4956090;28;20109;-83
2021/04/23 04:24:58;;;;;;;3.22;2.63;;;;;;;13.07;74.07;97701.41;4937751;28;20066;-83
2021/04/23 04:27:23;;;;;;;7.03;4.63;;;;;;;13.10;73.33;97698.53;4936894;28;20027;-84
2021/04/23 04:29:49;;;;;;;4.05;2.90;;;;;;;13.23;71.84;97704.75;4950748;28;20023;-82
2021/04/23 04:32:16;;;;;;;4.13;3.05;;;;;;;13.08;73.79;97690.56;4956101;28;20033;-85
2021/04/23 04:34:42;;;;;;;4.72;2.00;;;;;;;13.21;71.63;97696.81;4936973;29;20042;-83
2021/04/23 04:37:08;;;;;;;3.03;2.00;;;;;;;13.27;71.20;97701.75;4940283;28;20031;-85
2021/04/23 04:39:33;;;;;;;2.90;2.15;;;;;;;13.18;71.07;97680.03;4956378;28;20454;-84
2021/04/23 04:41:59;;;;;;;3.05;2.40;;;;;;;13.23;72.60;97692.19;4940245;28;20479;-84
2021/04/23 04:44:24;;;;;;;3.28;2.88;;;;;;;13.25;74.01;97697.47;4929550;29;20138;-85
2021/04/23 04:46:50;;;;;;;6.90;2.75;;;;;;;13.18;71.24;97705.09;4926736;28;20031;-84
2021/04/23 04:49:15;;;;;;;3.38;2.38;;;;;;;13.12;74.15;97705.50;4924740;29;20052;-84
2021/04/23 04:51:41;;;;;;;8.23;2.53;;;;;;;13.13;73.74;97693.81;4907085;29;20070;-83
2021/04/23 04:54:07;;;;;;;2.20;2.00;;;;;;;13.25;72.06;97702.84;4904315;29;20028;-83
2021/04/23 04:56:32;;;;;;;4.40;2.72;;;;;;;13.21;69.76;97699.50;4923608;29;20039;-83
2021/04/23 05:00:19;;;;;;;2.47;2.15;;;;;;;13.09;68.83;97670.81;4921967;29;20038;-83
2021/04/23 05:02:26;;;;;;;3.15;2.45;;;;;;;13.12;69.06;97669.72;4931725;29;20091;-85
2021/04/23 05:04:52;;;;;;;2.65;2.05;;;;;;;13.13;67.79;97680.38;4920302;29;20071;-84
2021/04/23 05:07:18;;;;;;;2.30;1.92;;;;;;;13.36;68.33;97701.09;4918247;29;20113;-83
2021/04/23 05:09:43;;;;;;;4.03;3.63;;;;;;;13.37;67.26;97701.97;4935318;29;20451;-84
2021/04/23 05:12:09;;;;;;;2.45;1.73;;;;;;;13.35;67.06;97698.53;4921053;29;20093;-84
2021/04/23 05:14:34;;;;;;;2.63;2.00;;;;;;;13.31;67.85;97692.53;4928566;29;20027;-84
2021/04/23 05:17:00;;;;;;;5.60;3.28;;;;;;;13.51;66.46;97720.66;4936723;29;20167;-84
2021/04/23 05:19:25;;;;;;;11.70;7.80;;;;;;;13.53;66.76;97719.56;4920423;29;20031;-84
2021/04/23 05:21:51;;;;;;;28.05;16.30;;;;;;;13.54;66.26;97710.53;4920749;29;20654;-84
2021/04/23 05:24:17;;;;;;;11.88;6.70;;;;;;;13.67;66.36;97713.22;4930971;29;20035;-84
2021/04/23 05:26:43;;;;;;;5.43;3.00;;;;;;;13.66;64.88;97713.34;4920339;29;20031;-83
2021/04/23 05:29:08;;;;;;;11.50;4.68;;;;;;;13.72;65.85;97711.03;4905279;29;20028;-84
2021/04/23 05:31:34;;;;;;;7.75;4.65;;;;;;;13.86;64.58;97728.88;4919354;29;20034;-83
2021/04/23 05:34:00;;;;;;;17.92;8.95;;;;;;;13.97;64.97;97723.56;4919952;29;20027;-82
2021/04/23 05:36:26;;;;;;;6.30;4.50;;;;;;;13.89;64.10;97715.22;4918423;29;20063;-83
2021/04/23 05:38:52;;;;;;;5.97;2.75;;;;;;;13.95;63.19;97726.41;4901414;29;20024;-83
2021/04/23 05:41:18;;;;;;;4.70;2.70;;;;;;;13.94;62.44;97707.66;4909152;29;20035;-83
2021/04/23 05:43:45;;;;;;;5.28;2.90;;;;;;;13.96;62.84;97713.81;4909500;29;20032;-81
2021/04/23 05:46:11;;;;;;;1.80;1.60;;;;;;;14.10;61.87;97735.16;4916610;29;20035;-82
2021/04/23 05:48:37;;;;;;;4.18;2.50;;;;;;;14.12;62.12;97725.16;4942861;28;20047;-83
2021/04/23 05:51:04;;;;;;;6.28;3.88;;;;;;;14.12;62.01;97728.69;4955493;28;20509;-83
2021/04/23 05:53:30;;;;;;;4.75;2.97;;;;;;;14.23;61.24;97733.31;4947057;28;20471;-83
2021/04/23 05:55:55;;;;;;;4.07;2.50;;;;;;;14.09;62.13;97741.50;4934029;28;20171;-83
2021/04/23 05:58:21;;;;;;;19.08;11.45;;;;;;;14.24;62.80;97750.31;4932028;28;20042;-83
2021/04/23 06:00:47;;;;;;;17.20;8.85;;;;;;;14.10;62.44;97744.09;4963554;28;20030;-82
2021/04/23 06:03:12;;;;;;;6.95;3.20;;;;;;;14.23;62.53;97754.84;4959269;28;20461;-82
2021/04/23 06:05:38;;;;;;;5.68;3.80;;;;;;;14.27;61.86;97756.34;4942712;28;20027;-82
2021/04/23 06:08:06;;;;;;;42.10;24.63;;;;;;;14.36;61.90;97761.06;4937296;28;20490;-82
2021/04/23 06:10:32;;;;;;;94.13;58.60;;;;;;;14.45;62.23;97749.63;4941354;28;20038;-82
2021/04/23 06:12:59;;;;;;;23.88;14.20;;;;;;;14.53;61.80;97766.06;4957535;28;20020;-83
2021/04/23 06:15:26;;;;;;;12.52;5.93;;;;;;;14.54;61.05;97775.88;4946564;28;20525;-82
2021/04/23 06:17:54;;;;;;;13.77;9.23;;;;;;;14.46;60.99;97761.22;4950294;28;20022;-81
2021/04/23 06:20:23;;;;;;;11.05;4.13;;;;;;;14.37;60.50;97757.38;4945284;28;20059;-81
2021/04/23 06:22:49;;;;;;;7.07;3.88;;;;;;;14.58;61.11;97774.63;4948055;29;20090;-81
2021/04/23 06:25:16;;;;;;;32.45;18.75;;;;;;;14.50;61.36;97782.44;4982050;28;20038;-75
2021/04/23 06:27:42;;;;;;;42.20;17.95;;;;;;;14.58;61.15;97782.72;4936988;28;20490;-78
2021/04/23 06:30:11;;;;;;;33.92;18.40;;;;;;;14.73;61.32;97786.13;4948549;28;20029;-78
2021/04/23 06:32:40;;;;;;;17.00;5.10;;;;;;;14.55;60.64;97782.94;4916305;29;20030;-80
2021/04/23 06:35:07;;;;;;;10.23;4.85;;;;;;;14.49;61.37;97777.16;4945144;28;20023;-78
2021/04/23 06:37:32;;;;;;;5.47;4.22;;;;;;;14.68;59.96;97782.03;4942499;28;20117;-79
2021/04/23 06:39:58;;;;;;;4.53;2.70;;;;;;;14.65;60.80;97783.13;4953229;28;20126;-77
2021/04/23 06:42:23;;;;;;;4.97;2.88;;;;;;;14.65;60.49;97778.59;4937519;28;20413;-77
2021/04/23 06:44:49;;;;;;;14.48;2.65;;;;;;;14.71;59.88;97781.81;4939690;29;20535;-80
2021/04/23 06:47:14;;;;;;;3.20;2.45;;;;;;;14.84;59.79;97779.91;4933610;29;20107;-81
2021/04/23 06:49:40;;;;;;;4.43;2.15;;;;;;;15.06;59.90;97772.78;4923446;28;20592;-80
2021/04/23 06:52:06;;;;;;;9.45;2.95;;;;;;;15.19;57.41;97767.31;4950822;29;20514;-81
2021/04/23 06:54:31;;;;;;;12.15;2.78;;;;;;;15.29;57.96;97787.19;4937938;28;20129;-81
2021/04/23 06:56:57;;;;;;;2.22;1.83;;;;;;;15.06;57.34;97782.72;4946285;28;20494;-81
2021/04/23 06:59:23;;;;;;;5.18;2.28;;;;;;;14.92;58.32;97789.13;4955574;28;20095;-82
2021/04/23 07:01:48;;;;;;;3.10;1.95;;;;;;;15.04;58.33;97800.84;4938105;28;20482;-80
2021/04/23 07:04:14;;;;;;;9.38;2.00;;;;;;;15.12;57.43;97795.72;4939130;28;20019;-81
2021/04/23 07:06:42;;;;;;;5.10;2.50;;;;;;;15.09;59.39;97796.81;4939530;28;20101;-80
2021/04/23 07:09:08;;;;;;;2.13;1.90;;;;;;;15.12;58.09;97790.31;4945008;28;20137;-80
2021/04/23 07:11:35;;;;;;;5.00;2.20;;;;;;;15.12;58.09;97803.78;4938957;28;20060;-82
2021/04/23 07:14:01;;;;;;;3.03;1.80;;;;;;;15.15;58.54;97807.13;4958360;28;20037;-81
2021/04/23 07:16:27;;;;;;;4.35;2.95;;;;;;;15.16;58.90;97810.69;4943307;28;20028;-79
2021/04/23 07:18:53;;;;;;;7.68;3.40;;;;;;;15.14;59.11;97796.44;4937092;28;20062;-80
2021/04/23 07:21:18;;;;;;;8.48;3.95;;;;;;;15.26;58.09;97811.69;4957291;28;20066;-81
2021/04/23 07:23:44;;;;;;;12.02;3.70;;;;;;;15.17;58.68;97801.59;4925621;29;20483;-81
2021/04/23 07:26:09;;;;;;;11.90;3.00;;;;;;;15.06;58.94;97804.25;4934162;28;20031;-80
2021/04/23 07:28:35;;;;;;;6.25;3.30;;;;;;;15.07;59.00;97811.38;4965715;28;20030;-80
2021/04/23 07:31:01;;;;;;;10.73;3.70;;;;;;;14.90;59.78;97804.56;4937245;28;20028;-80
2021/04/23 07:33:26;;;;;;;6.90;4.55;;;;;;;14.94;59.25;97810.56;4953717;28;20533;-80
2021/04/23 07:35:52;;;;;;;8.10;4.53;;;;;;;14.90;59.23;97811.78;4953784;28;20031;-81
2021/04/23 07:38:18;;;;;;;5.65;3.25;;;;;;;14.68;60.74;97803.56;4940049;28;20042;-80
2021/04/23 07:40:44;;;;;;;7.95;2.83;;;;;;;14.66;61.31;97803.69;4936124;29;20035;-80
2021/04/23 07:43:11;;;;;;;2.97;2.45;;;;;;;14.69;60.02;97805.31;4924330;28;20051;-81
2021/04/23 07:45:37;;;;;;;6.95;2.97;;;;;;;14.75;60.54;97821.00;4955105;28;20046;-80
2021/04/23 07:48:02;;;;;;;3.15;2.08;;;;;;;14.76;59.29;97820.03;4938275;28;20406;-81
2021/04/23 07:50:28;;;;;;;8.43;2.45;;;;;;;14.72;60.65;97829.31;4945442;28;20490;-80
2021/04/23 07:52:54;;;;;;;7.68;4.97;;;;;;;14.72;60.72;97803.25;4938415;28;20031;-80
2021/04/23 07:55:22;;;;;;;7.50;4.57;;;;;;;14.94;59.13;97805.19;4963273;28;20512;-81
2021/04/23 07:57:48;;;;;;;9.00;5.30;;;;;;;15.04;59.73;97825.09;4960557;28;20038;-81
2021/04/23 08:00:15;;;;;;;9.27;4.68;;;;;;;15.23;58.76;97827.25;4961793;28;20066;-81
2021/04/23 08:02:41;;;;;;;7.15;4.75;;;;;;;15.20;58.29;97814.84;4944550;28;20097;-81
2021/04/23 08:05:09;;;;;;;21.27;10.63;;;;;;;15.20;57.97;97822.91;4943653;28;20039;-81
2021/04/23 08:07:35;;;;;;;15.02;8.98;;;;;;;15.26;57.75;97817.06;4949102;28;20095;-81
2021/04/23 08:10:00;;;;;;;26.13;15.63;;;;;;;15.44;57.73;97826.44;4954450;28;20641;-81
2021/04/23 08:12:26;;;;;;;8.40;3.63;;;;;;;15.66;57.66;97818.44;4937822;28;20042;-81
2021/04/23 08:14:51;;;;;;;5.13;3.25;;;;;;;15.88;54.92;97822.16;4943462;28;20516;-82
2021/04/23 08:17:17;;;;;;;5.95;3.78;;;;;;;16.03;54.61;97826.31;4938510;28;20042;-80
2021/04/23 08:19:43;;;;;;;6.47;3.20;;;;;;;16.04;55.29;97823.53;4946729;28;20101;-80
2021/04/23 08:22:08;;;;;;;6.35;2.78;;;;;;;16.16;54.39;97818.97;4926989;28;20110;-81
2021/04/23 08:24:34;;;;;;;8.68;3.50;;;;;;;16.37;53.99;97814.53;4940544;28;20510;-80
2021/04/23 08:27:00;;;;;;;7.50;3.20;;;;;;;16.57;52.69;97824.63;4968276;28;21011;-82
2021/04/23 08:29:25;;;;;;;6.95;2.70;;;;;;;16.87;51.17;97813.13;4939168;28;20113;-80
2021/04/23 08:31:51;;;;;;;12.07;4.80;;;;;;;17.31;51.49;97825.63;4941203;28;20045;-79
2021/04/23 08:34:17;;;;;;;13.50;5.28;;;;;;;17.61;50.40;97820.34;4945438;28;20812;-81
2021/04/23 08:36:43;;;;;;;3.33;2.33;;;;;;;17.46;48.99;97820.75;4943709;29;20082;-80
2021/04/23 08:39:10;;;;;;;10.32;3.20;;;;;;;17.33;50.90;97827.22;4933969;28;20043;-82
2021/04/23 08:41:38;;;;;;;3.53;2.30;;;;;;;17.35;49.31;97824.38;4926903;28;20406;-80
2021/04/23 08:44:05;;;;;;;3.33;2.45;;;;;;;17.35;51.40;97816.25;4941605;28;20073;-81
2021/04/23 08:46:32;;;;;;;8.45;2.80;;;;;;;17.44;50.39;97820.91;4939316;28;20038;-81
2021/04/23 08:48:59;;;;;;;2.70;2.00;;;;;;;17.43;50.06;97827.31;4939515;28;20105;-80
2021/04/23 08:51:25;;;;;;;16.52;2.95;;;;;;;17.25;49.94;97821.63;4937066;29;20134;-80
2021/04/23 08:53:52;;;;;;;4.22;2.58;;;;;;;17.19;50.74;97821.28;4947324;28;20106;-81
2021/04/23 08:56:18;;;;;;;9.43;2.85;;;;;;;17.30;52.64;97829.31;4938039;28;20058;-80
2021/04/23 08:58:44;;;;;;;9.07;2.85;;;;;;;17.55;51.55;97818.16;4932268;29;20098;-82
2021/04/23 09:01:10;;;;;;;16.40;9.27;;;;;;;17.56;50.18;97829.84;4942092;28;20499;-82
2021/04/23 09:03:36;;;;;;;3.20;1.77;;;;;;;17.30;48.77;97834.72;4964902;28;20035;-81
2021/04/23 09:06:16;;;;;;;3.63;1.98;;;;;;;17.56;50.86;97836.13;4954328;28;20034;-81
2021/04/23 09:09:11;;;;;;;13.82;6.85;;;;;;;17.71;49.90;97839.34;4938157;28;20110;-81
2021/04/23 09:11:40;;;;;;;8.10;2.72;;;;;;;17.92;51.08;97842.91;4969543;28;20422;-81
2021/04/23 09:14:15;;;;;;;14.40;3.75;;;;;;;18.07;49.74;97829.88;4946272;28;20034;-81
2021/04/23 09:16:50;;;;;;;10.60;2.42;;;;;;;18.13;46.93;97832.06;4949408;28;20425;-83
2021/04/23 09:19:28;;;;;;;6.22;2.33;;;;;;;18.09;47.50;97830.63;4935548;28;20019;-82
2021/04/23 09:22:07;;;;;;;4.55;1.65;;;;;;;18.26;46.60;97824.56;4954224;28;20506;-81
2021/04/23 09:24:39;;;;;;;3.67;1.98;;;;;;;18.40;46.54;97824.19;4951276;28;20037;-80
2021/04/23 09:27:12;;;;;;;4.15;1.63;;;;;;;18.85;44.76;97824.66;4940664;28;20494;-80
2021/04/23 09:29:40;;;;;;;6.70;2.33;;;;;;;19.38;43.21;97820.56;4953813;28;20039;-83
2021/04/23 09:32:13;;;;;;;3.25;1.85;;;;;;;19.42;42.88;97811.19;4934644;28;20035;-80
2021/04/23 09:34:46;;;;;;;6.78;1.80;;;;;;;20.07;42.18;97816.78;4961736;28;20457;-80
2021/04/23 09:37:12;;;;;;;15.05;4.55;;;;;;;20.63;42.32;97814.88;4960364;28;20418;-82
2021/04/23 09:39:37;;;;;;;4.88;2.70;;;;;;;20.01;41.56;97824.53;4952914;28;20042;-82
2021/04/23 09:42:06;;;;;;;2.95;2.22;;;;;;;20.02;42.25;97823.53;4937952;28;20030;-81
2021/04/23 09:44:44;;;;;;;1.45;1.33;;;;;;;20.06;39.94;97826.78;4939499;29;20118;-82
2021/04/23 09:47:19;;;;;;;2.40;2.08;;;;;;;20.41;40.31;97821.56;4964103;28;20461;-81
2021/04/23 09:49:52;;;;;;;28.27;18.23;;;;;;;20.81;39.04;97823.94;4947481;28;20047;-82
2021/04/23 09:52:19;;;;;;;4.38;2.50;;;;;;;20.76;38.29;97817.25;4941510;28;20035;-81
2021/04/23 09:54:56;;;;;;;8.07;4.15;;;;;;;21.04;37.72;97805.34;4960412;28;20027;-80
2021/04/23 09:57:31;;;;;;;10.07;5.40;;;;;;;21.22;37.87;97822.56;4944499;28;20036;-81
2021/04/23 09:59:59;;;;;;;5.32;3.67;;;;;;;21.27;37.34;97827.53;4947564;28;20022;-81
2021/04/23 10:02:27;;;;;;;6.97;4.72;;;;;;;21.49;37.35;97821.63;4943882;28;20089;-81
2021/04/23 10:04:53;;;;;;;6.03;3.15;;;;;;;21.41;38.26;97827.00;4951716;28;20445;-81
2021/04/23 10:07:27;;;;;;;3.53;1.88;;;;;;;20.91;39.00;97816.59;4938933;28;20066;-81
2021/04/23 10:10:04;;;;;;;4.00;1.92;;;;;;;21.37;38.14;97831.03;4948221;28;20550;-82
2021/04/23 10:12:38;;;;;;;7.43;2.35;;;;;;;21.39;38.21;97829.88;4950302;28;20409;-80
2021/04/23 10:15:07;;;;;;;4.10;2.50;;;;;;;21.15;38.19;97820.59;4958144;28;20030;-81
2021/04/23 10:17:34;;;;;;;9.63;2.63;;;;;;;21.06;39.39;97825.94;4961115;28;20422;-81
2021/04/23 10:20:00;;;;;;;5.60;2.63;;;;;;;21.27;39.68;97836.56;4969973;28;20106;-83
2021/04/23 10:22:26;;;;;;;8.88;2.35;;;;;;;20.51;40.13;97829.69;4944088;28;20031;-82
2021/04/23 10:24:53;;;;;;;5.32;2.20;;;;;;;20.28;40.23;97825.59;4958321;28;20027;-81
2021/04/23 10:27:20;;;;;;;5.80;3.15;;;;;;;20.02;40.46;97823.53;4942472;28;20037;-81
2021/04/23 10:29:48;;;;;;;3.15;2.25;;;;;;;19.59;40.78;97806.91;4962520;28;20097;-81
2021/04/23 10:32:14;;;;;;;2.38;2.10;;;;;;;19.00;42.46;97811.56;4934207;28;20027;-84
2021/04/23 10:34:41;;;;;;;2.92;2.13;;;;;;;18.53;42.64;97811.31;4953394;28;20488;-77
2021/04/23 10:37:08;;;;;;;3.10;2.40;;;;;;;18.16;43.94;97824.53;4946117;28;20038;-80
2021/04/23 10:39:38;;;;;;;3.45;2.55;;;;;;;17.94;44.58;97829.22;4942950;28;20487;-83
2021/04/23 10:42:05;;;;;;;4.45;2.47;;;;;;;17.95;45.45;97821.00;4949624;28;20474;-81
2021/04/23 10:45:00;;;;;;;9.57;3.10;;;;;;;17.95;45.23;97814.72;4950605;28;20066;-82
2021/04/23 10:47:35;;;;;;;18.83;3.50;;;;;;;17.99;46.35;97814.31;4944906;28;20034;-81
2021/04/23 10:50:09;;;;;;;8.30;3.95;;;;;;;18.11;45.68;97820.50;4946192;28;20521;-81
2021/04/23 10:52:35;;;;;;;11.90;3.35;;;;;;;18.16;45.20;97812.81;4942863;28;20038;-79
2021/04/23 10:55:08;;;;;;;4.28;2.10;;;;;;;17.94;44.36;97812.97;4940457;28;20398;-80
2021/04/23 10:57:54;;;;;;;4.18;2.45;;;;;;;18.09;44.73;97811.66;4937826;28;20470;-81
2021/04/23 11:00:42;;;;;;;4.38;2.75;;;;;;;18.29;45.58;97829.72;4942355;29;20093;-80
2021/04/23 11:03:20;;;;;;;7.40;3.20;;;;;;;18.73;44.37;97823.94;4948073;28;20026;-80
2021/04/23 11:05:48;;;;;;;11.20;3.63;;;;;;;19.08;43.19;97817.13;4958446;28;20085;-80
2021/04/23 11:08:14;;;;;;;5.57;2.53;;;;;;;19.02;42.78;97786.00;4938000;28;20118;-81
2021/04/23 11:11:10;;;;;;;3.58;2.53;;;;;;;19.06;43.93;97827.25;4959350;28;20463;-81
2021/04/23 11:13:39;;;;;;;4.65;2.50;;;;;;;18.85;43.28;97805.69;4958218;28;20414;-80
2021/04/23 11:16:17;;;;;;;4.57;3.50;;;;;;;19.24;42.89;97825.56;4931536;28;20023;-82
2021/04/23 11:18:44;;;;;;;6.93;2.72;;;;;;;19.25;42.46;97816.44;4972537;28;20031;-80
2021/04/23 11:21:35;;;;;;;3.95;3.30;;;;;;;19.39;42.47;97818.72;4946173;28;20027;-80
2021/04/23 11:24:27;;;;;;;5.00;3.30;;;;;;;19.42;42.73;97804.88;4961228;28;20396;-81
2021/04/23 11:27:03;;;;;;;19.17;10.00;;;;;;;20.01;40.86;97813.66;4935569;28;20134;-80
2021/04/23 11:29:57;;;;;;;17.63;10.93;;;;;;;20.01;40.63;97810.94;4943936;28;20290;-81
2021/04/23 11:32:53;;;;;;;4.10;2.25;;;;;;;20.60;40.16;97817.91;4965122;28;20049;-81
2021/04/23 11:35:22;;;;;;;3.10;2.42;;;;;;;21.21;38.88;97811.81;4962354;28;20097;-81
2021/04/23 11:37:53;;;;;;;2.25;1.98;;;;;;;21.85;37.23;97800.66;4951363;28;20027;-82